sensor_id;sensor_type;location;lat;lon;timestamp;temperature;humidity
21487;DHT22;10905;50.822;4.336;2023-05-10T00:00:33;14.20;99.90
21487;DHT22;10905;50.822;4.336;2023-05-10T00:02:58;14.30;99.90
21487;DHT22;10905;50.822;4.336;2023-05-10T00:05:24;14.20;99.90
21487;DHT22;10905;50.822;4.336;2023-05-10T00:07:49;14.40;99.90
21487;DHT22;10905;50.822;4.336;2023-05-10T00:10:15;14.40;99.90
21487;DHT22;10905;50.822;4.336;2023-05-10T00:12:40;14.30;99.90
21487;DHT22;10905;50.822;4.336;2023-05-10T00:15:06;14.30;99.90
21487;DHT22;10905;50.822;4.336;2023-05-10T00:17:32;14.30;99.90
21487;DHT22;10905;50.822;4.336;2023-05-10T00:19:57;14.30;99.90
21487;DHT22;10905;50.822;4.336;2023-05-10T00:22:23;14.30;99.90
21487;DHT22;10905;50.822;4.336;2023-05-10T00:24:48;14.30;99.90
21487;DHT22;10905;50.822;4.336;2023-05-10T00:27:14;14.30;99.90
21487;DHT22;10905;50.822;4.336;2023-05-10T00:29:39;14.20;99.90
21487;DHT22;10905;50.822;4.336;2023-05-10T00:32:05;14.20;99.90
21487;DHT22;10905;50.822;4.336;2023-05-10T00:34:31;14.20;99.90
21487;DHT22;10905;50.822;4.336;2023-05-10T00:36:56;14.20;99.90
21487;DHT22;10905;50.822;4.336;2023-05-10T00:39:22;14.20;99.90
21487;DHT22;10905;50.822;4.336;2023-05-10T00:41:47;14.20;99.90
21487;DHT22;10905;50.822;4.336;2023-05-10T00:44:13;14.20;99.90
21487;DHT22;10905;50.822;4.336;2023-05-10T00:46:39;14.20;99.90
21487;DHT22;10905;50.822;4.336;2023-05-10T00:49:05;14.20;99.90
21487;DHT22;10905;50.822;4.336;2023-05-10T00:51:31;14.30;99.90
21487;DHT22;10905;50.822;4.336;2023-05-10T00:53:56;14.30;99.90
21487;DHT22;10905;50.822;4.336;2023-05-10T00:56:22;14.30;99.90
21487;DHT22;10905;50.822;4.336;2023-05-10T00:58:49;14.30;99.90
21487;DHT22;10905;50.822;4.336;2023-05-10T01:01:15;14.20;99.90
21487;DHT22;10905;50.822;4.336;2023-05-10T01:03:41;14.10;99.90
21487;DHT22;10905;50.822;4.336;2023-05-10T01:06:07;14.20;99.90
21487;DHT22;10905;50.822;4.336;2023-05-10T01:08:32;14.20;99.90
21487;DHT22;10905;50.822;4.336;2023-05-10T01:10:58;14.10;99.90
21487;DHT22;10905;50.822;4.336;2023-05-10T01:15:52;14.20;99.90
21487;DHT22;10905;50.822;4.336;2023-05-10T01:18:18;14.40;99.90
21487;DHT22;10905;50.822;4.336;2023-05-10T01:20:45;14.40;99.90
21487;DHT22;10905;50.822;4.336;2023-05-10T01:30:44;14.40;99.90
21487;DHT22;10905;50.822;4.336;2023-05-10T01:38:18;14.40;99.90
21487;DHT22;10905;50.822;4.336;2023-05-10T01:43:11;14.30;99.90
21487;DHT22;10905;50.822;4.336;2023-05-10T01:45:57;14.30;99.90
21487;DHT22;10905;50.822;4.336;2023-05-10T01:48:25;14.30;99.90
21487;DHT22;10905;50.822;4.336;2023-05-10T01:50:52;14.20;99.90
21487;DHT22;10905;50.822;4.336;2023-05-10T01:53:19;14.20;99.90
21487;DHT22;10905;50.822;4.336;2023-05-10T01:55:49;14.20;99.90
21487;DHT22;10905;50.822;4.336;2023-05-10T01:58:27;14.20;99.90
21487;DHT22;10905;50.822;4.336;2023-05-10T02:00:53;14.20;99.90
21487;DHT22;10905;50.822;4.336;2023-05-10T02:03:20;14.20;99.90
21487;DHT22;10905;50.822;4.336;2023-05-10T02:05:48;14.20;99.90
21487;DHT22;10905;50.822;4.336;2023-05-10T02:08:14;14.30;99.90
21487;DHT22;10905;50.822;4.336;2023-05-10T02:10:41;14.30;99.90
21487;DHT22;10905;50.822;4.336;2023-05-10T02:13:07;14.20;99.90
21487;DHT22;10905;50.822;4.336;2023-05-10T02:15:33;14.20;99.90
21487;DHT22;10905;50.822;4.336;2023-05-10T02:17:59;14.20;99.90
21487;DHT22;10905;50.822;4.336;2023-05-10T02:20:25;14.40;99.90
21487;DHT22;10905;50.822;4.336;2023-05-10T02:22:51;14.50;99.90
21487;DHT22;10905;50.822;4.336;2023-05-10T02:25:18;14.50;99.90
21487;DHT22;10905;50.822;4.336;2023-05-10T02:27:44;14.50;99.90
21487;DHT22;10905;50.822;4.336;2023-05-10T02:30:10;14.40;99.90
21487;DHT22;10905;50.822;4.336;2023-05-10T02:32:36;14.40;99.90
21487;DHT22;10905;50.822;4.336;2023-05-10T02:35:02;14.30;99.90
21487;DHT22;10905;50.822;4.336;2023-05-10T02:37:29;14.30;99.90
21487;DHT22;10905;50.822;4.336;2023-05-10T02:39:55;14.30;99.90
21487;DHT22;10905;50.822;4.336;2023-05-10T02:42:23;14.30;99.90
21487;DHT22;10905;50.822;4.336;2023-05-10T02:44:50;14.20;99.90
21487;DHT22;10905;50.822;4.336;2023-05-10T02:47:16;14.20;99.90
21487;DHT22;10905;50.822;4.336;2023-05-10T02:49:42;14.30;99.90
21487;DHT22;10905;50.822;4.336;2023-05-10T02:52:07;14.20;99.90
21487;DHT22;10905;50.822;4.336;2023-05-10T02:54:38;14.30;99.90
21487;DHT22;10905;50.822;4.336;2023-05-10T02:57:05;14.30;99.90
21487;DHT22;10905;50.822;4.336;2023-05-10T02:59:31;14.40;99.90
21487;DHT22;10905;50.822;4.336;2023-05-10T03:01:58;14.30;99.90
21487;DHT22;10905;50.822;4.336;2023-05-10T03:04:25;14.30;99.90
21487;DHT22;10905;50.822;4.336;2023-05-10T03:06:50;14.40;99.90
21487;DHT22;10905;50.822;4.336;2023-05-10T03:09:16;14.40;99.90
21487;DHT22;10905;50.822;4.336;2023-05-10T03:17:00;14.20;99.90
21487;DHT22;10905;50.822;4.336;2023-05-10T03:20:03;14.30;99.90
21487;DHT22;10905;50.822;4.336;2023-05-10T03:22:20;14.20;99.90
21487;DHT22;10905;50.822;4.336;2023-05-10T03:24:46;14.20;99.90
21487;DHT22;10905;50.822;4.336;2023-05-10T03:27:12;14.20;99.90
21487;DHT22;10905;50.822;4.336;2023-05-10T03:29:39;14.10;99.90
21487;DHT22;10905;50.822;4.336;2023-05-10T03:32:05;14.10;99.90
21487;DHT22;10905;50.822;4.336;2023-05-10T03:34:30;14.10;99.90
21487;DHT22;10905;50.822;4.336;2023-05-10T03:36:59;14.10;99.90
21487;DHT22;10905;50.822;4.336;2023-05-10T03:39:24;14.00;99.90
21487;DHT22;10905;50.822;4.336;2023-05-10T03:41:50;14.00;99.90
21487;DHT22;10905;50.822;4.336;2023-05-10T03:44:16;14.00;99.90
21487;DHT22;10905;50.822;4.336;2023-05-10T03:46:41;14.00;99.90
21487;DHT22;10905;50.822;4.336;2023-05-10T03:49:07;14.10;99.90
21487;DHT22;10905;50.822;4.336;2023-05-10T03:51:32;14.10;99.90
21487;DHT22;10905;50.822;4.336;2023-05-10T03:53:58;14.10;99.90
21487;DHT22;10905;50.822;4.336;2023-05-10T03:56:23;14.10;99.90
21487;DHT22;10905;50.822;4.336;2023-05-10T03:58:49;14.10;99.90
21487;DHT22;10905;50.822;4.336;2023-05-10T04:01:14;14.10;99.90
21487;DHT22;10905;50.822;4.336;2023-05-10T04:03:40;14.10;99.90
21487;DHT22;10905;50.822;4.336;2023-05-10T04:06:05;14.10;99.90
21487;DHT22;10905;50.822;4.336;2023-05-10T04:08:32;14.10;99.90
21487;DHT22;10905;50.822;4.336;2023-05-10T04:11:07;14.10;99.90
21487;DHT22;10905;50.822;4.336;2023-05-10T04:13:33;14.10;99.90
21487;DHT22;10905;50.822;4.336;2023-05-10T04:15:59;14.10;99.90
21487;DHT22;10905;50.822;4.336;2023-05-10T04:18:24;14.00;99.90
21487;DHT22;10905;50.822;4.336;2023-05-10T04:20:50;14.10;99.90
21487;DHT22;10905;50.822;4.336;2023-05-10T04:23:15;14.10;99.90
21487;DHT22;10905;50.822;4.336;2023-05-10T04:25:42;14.10;99.90
21487;DHT22;10905;50.822;4.336;2023-05-10T04:28:07;14.10;99.90
21487;DHT22;10905;50.822;4.336;2023-05-10T04:30:33;14.00;99.90
21487;DHT22;10905;50.822;4.336;2023-05-10T04:32:59;14.00;99.90
21487;DHT22;10905;50.822;4.336;2023-05-10T04:35:25;13.90;99.90
21487;DHT22;10905;50.822;4.336;2023-05-10T04:37:50;13.90;99.90
21487;DHT22;10905;50.822;4.336;2023-05-10T04:40:16;13.90;99.90
21487;DHT22;10905;50.822;4.336;2023-05-10T04:42:41;14.00;99.90
21487;DHT22;10905;50.822;4.336;2023-05-10T04:45:07;14.00;99.90
21487;DHT22;10905;50.822;4.336;2023-05-10T04:47:32;13.90;99.90
21487;DHT22;10905;50.822;4.336;2023-05-10T04:49:58;13.90;99.90
21487;DHT22;10905;50.822;4.336;2023-05-10T04:52:24;13.90;99.90
21487;DHT22;10905;50.822;4.336;2023-05-10T04:54:49;13.90;99.90
21487;DHT22;10905;50.822;4.336;2023-05-10T04:57:16;13.90;99.90
21487;DHT22;10905;50.822;4.336;2023-05-10T04:59:41;13.90;99.90
21487;DHT22;10905;50.822;4.336;2023-05-10T05:02:07;14.00;99.90
21487;DHT22;10905;50.822;4.336;2023-05-10T05:04:33;14.00;99.90
21487;DHT22;10905;50.822;4.336;2023-05-10T05:06:59;14.00;99.90
21487;DHT22;10905;50.822;4.336;2023-05-10T05:09:24;13.90;99.90
21487;DHT22;10905;50.822;4.336;2023-05-10T05:11:50;13.80;99.90
21487;DHT22;10905;50.822;4.336;2023-05-10T05:14:15;13.80;99.90
21487;DHT22;10905;50.822;4.336;2023-05-10T05:16:41;13.80;99.90
21487;DHT22;10905;50.822;4.336;2023-05-10T05:19:06;13.70;99.90
21487;DHT22;10905;50.822;4.336;2023-05-10T05:21:32;13.80;99.90
21487;DHT22;10905;50.822;4.336;2023-05-10T05:23:57;13.70;99.90
21487;DHT22;10905;50.822;4.336;2023-05-10T05:26:23;13.70;99.90
21487;DHT22;10905;50.822;4.336;2023-05-10T05:28:48;13.70;99.90
21487;DHT22;10905;50.822;4.336;2023-05-10T05:31:16;13.70;99.90
21487;DHT22;10905;50.822;4.336;2023-05-10T05:33:43;13.60;99.90
21487;DHT22;10905;50.822;4.336;2023-05-10T05:36:08;13.70;99.90
21487;DHT22;10905;50.822;4.336;2023-05-10T05:38:34;13.60;99.90
21487;DHT22;10905;50.822;4.336;2023-05-10T05:40:59;13.60;99.90
21487;DHT22;10905;50.822;4.336;2023-05-10T05:43:25;13.60;99.90
21487;DHT22;10905;50.822;4.336;2023-05-10T05:45:54;13.60;99.90
21487;DHT22;10905;50.822;4.336;2023-05-10T05:48:19;13.60;99.90
21487;DHT22;10905;50.822;4.336;2023-05-10T05:50:45;13.60;99.90
21487;DHT22;10905;50.822;4.336;2023-05-10T05:53:11;13.60;99.90
21487;DHT22;10905;50.822;4.336;2023-05-10T05:55:36;13.60;99.90
21487;DHT22;10905;50.822;4.336;2023-05-10T05:58:02;13.70;99.90
21487;DHT22;10905;50.822;4.336;2023-05-10T06:00:28;13.70;99.90
21487;DHT22;10905;50.822;4.336;2023-05-10T06:02:53;13.70;99.90
21487;DHT22;10905;50.822;4.336;2023-05-10T06:05:19;13.70;99.90
21487;DHT22;10905;50.822;4.336;2023-05-10T06:07:45;13.60;99.90
21487;DHT22;10905;50.822;4.336;2023-05-10T06:10:11;13.50;99.90
21487;DHT22;10905;50.822;4.336;2023-05-10T06:12:36;13.50;99.90
21487;DHT22;10905;50.822;4.336;2023-05-10T06:15:02;13.40;99.90
21487;DHT22;10905;50.822;4.336;2023-05-10T06:17:28;13.40;99.90
21487;DHT22;10905;50.822;4.336;2023-05-10T06:19:54;13.30;99.90
21487;DHT22;10905;50.822;4.336;2023-05-10T06:22:19;13.30;99.90
21487;DHT22;10905;50.822;4.336;2023-05-10T06:24:45;13.30;99.90
21487;DHT22;10905;50.822;4.336;2023-05-10T06:27:10;13.40;99.90
21487;DHT22;10905;50.822;4.336;2023-05-10T06:29:36;13.40;99.90
21487;DHT22;10905;50.822;4.336;2023-05-10T06:32:01;13.40;99.90
21487;DHT22;10905;50.822;4.336;2023-05-10T06:34:27;13.40;99.90
21487;DHT22;10905;50.822;4.336;2023-05-10T06:36:53;13.30;99.90
21487;DHT22;10905;50.822;4.336;2023-05-10T06:39:18;13.30;99.90
21487;DHT22;10905;50.822;4.336;2023-05-10T06:41:44;13.40;99.90
21487;DHT22;10905;50.822;4.336;2023-05-10T06:44:09;13.50;99.90
21487;DHT22;10905;50.822;4.336;2023-05-10T06:46:35;13.50;99.90
21487;DHT22;10905;50.822;4.336;2023-05-10T06:49:01;13.60;99.90
21487;DHT22;10905;50.822;4.336;2023-05-10T06:51:27;13.60;99.90
21487;DHT22;10905;50.822;4.336;2023-05-10T06:53:52;13.50;99.90
21487;DHT22;10905;50.822;4.336;2023-05-10T06:56:18;13.60;99.90
21487;DHT22;10905;50.822;4.336;2023-05-10T06:58:43;13.60;99.90
21487;DHT22;10905;50.822;4.336;2023-05-10T07:01:09;13.60;99.90
21487;DHT22;10905;50.822;4.336;2023-05-10T07:03:35;13.60;99.90
21487;DHT22;10905;50.822;4.336;2023-05-10T07:06:03;13.80;99.90
21487;DHT22;10905;50.822;4.336;2023-05-10T07:08:32;13.80;99.90
21487;DHT22;10905;50.822;4.336;2023-05-10T07:13:26;13.80;99.90
21487;DHT22;10905;50.822;4.336;2023-05-10T07:15:52;13.80;99.90
21487;DHT22;10905;50.822;4.336;2023-05-10T07:18:17;13.70;99.90
21487;DHT22;10905;50.822;4.336;2023-05-10T07:20:43;13.70;99.90
21487;DHT22;10905;50.822;4.336;2023-05-10T07:23:08;13.70;99.90
21487;DHT22;10905;50.822;4.336;2023-05-10T07:25:34;13.60;99.90
21487;DHT22;10905;50.822;4.336;2023-05-10T07:27:59;13.60;99.90
21487;DHT22;10905;50.822;4.336;2023-05-10T07:30:25;13.60;99.90
21487;DHT22;10905;50.822;4.336;2023-05-10T07:32:51;13.70;99.90
21487;DHT22;10905;50.822;4.336;2023-05-10T07:35:16;13.80;99.90
21487;DHT22;10905;50.822;4.336;2023-05-10T07:37:42;13.90;99.90
21487;DHT22;10905;50.822;4.336;2023-05-10T07:40:08;14.00;99.90
21487;DHT22;10905;50.822;4.336;2023-05-10T07:42:35;13.90;99.90
21487;DHT22;10905;50.822;4.336;2023-05-10T07:45:00;13.90;99.90
21487;DHT22;10905;50.822;4.336;2023-05-10T07:47:26;13.90;99.90
21487;DHT22;10905;50.822;4.336;2023-05-10T07:49:51;14.00;99.90
21487;DHT22;10905;50.822;4.336;2023-05-10T07:52:17;14.00;99.90
21487;DHT22;10905;50.822;4.336;2023-05-10T07:54:42;14.10;99.90
21487;DHT22;10905;50.822;4.336;2023-05-10T07:57:08;14.10;99.90
21487;DHT22;10905;50.822;4.336;2023-05-10T07:59:34;14.20;99.90
21487;DHT22;10905;50.822;4.336;2023-05-10T08:01:59;14.20;99.90
21487;DHT22;10905;50.822;4.336;2023-05-10T08:04:25;14.20;99.90
21487;DHT22;10905;50.822;4.336;2023-05-10T08:06:51;14.20;99.90
21487;DHT22;10905;50.822;4.336;2023-05-10T08:09:16;14.30;99.90
21487;DHT22;10905;50.822;4.336;2023-05-10T08:11:43;14.50;99.90
21487;DHT22;10905;50.822;4.336;2023-05-10T08:14:11;14.50;99.90
21487;DHT22;10905;50.822;4.336;2023-05-10T08:16:37;14.50;99.90
21487;DHT22;10905;50.822;4.336;2023-05-10T08:19:02;14.60;99.90
21487;DHT22;10905;50.822;4.336;2023-05-10T08:21:28;14.60;99.90
21487;DHT22;10905;50.822;4.336;2023-05-10T08:23:53;14.60;99.90
21487;DHT22;10905;50.822;4.336;2023-05-10T08:26:19;14.60;99.90
21487;DHT22;10905;50.822;4.336;2023-05-10T08:28:46;14.70;99.90
21487;DHT22;10905;50.822;4.336;2023-05-10T08:31:11;14.80;99.90
21487;DHT22;10905;50.822;4.336;2023-05-10T08:33:37;14.90;99.90
21487;DHT22;10905;50.822;4.336;2023-05-10T08:36:02;15.00;99.90
21487;DHT22;10905;50.822;4.336;2023-05-10T08:38:28;14.90;99.90
21487;DHT22;10905;50.822;4.336;2023-05-10T08:40:54;14.80;99.90
21487;DHT22;10905;50.822;4.336;2023-05-10T08:43:21;14.90;99.90
21487;DHT22;10905;50.822;4.336;2023-05-10T08:45:50;14.80;99.90
21487;DHT22;10905;50.822;4.336;2023-05-10T08:48:17;14.70;99.90
21487;DHT22;10905;50.822;4.336;2023-05-10T08:50:44;14.70;99.90
21487;DHT22;10905;50.822;4.336;2023-05-10T08:53:11;14.70;99.90
21487;DHT22;10905;50.822;4.336;2023-05-10T08:55:37;14.70;99.90
21487;DHT22;10905;50.822;4.336;2023-05-10T08:58:04;14.70;99.90
21487;DHT22;10905;50.822;4.336;2023-05-10T09:00:29;14.70;99.90
21487;DHT22;10905;50.822;4.336;2023-05-10T09:02:56;14.80;99.90
21487;DHT22;10905;50.822;4.336;2023-05-10T09:05:22;14.80;99.90
21487;DHT22;10905;50.822;4.336;2023-05-10T09:07:48;14.70;99.90
21487;DHT22;10905;50.822;4.336;2023-05-10T09:10:13;14.80;99.90
21487;DHT22;10905;50.822;4.336;2023-05-10T09:12:40;14.80;99.90
21487;DHT22;10905;50.822;4.336;2023-05-10T09:15:07;14.80;99.90
21487;DHT22;10905;50.822;4.336;2023-05-10T09:17:32;14.70;99.90
21487;DHT22;10905;50.822;4.336;2023-05-10T09:19:59;14.60;99.90
21487;DHT22;10905;50.822;4.336;2023-05-10T09:22:24;14.60;99.90
21487;DHT22;10905;50.822;4.336;2023-05-10T09:25:09;14.50;99.90
21487;DHT22;10905;50.822;4.336;2023-05-10T09:27:36;14.50;99.90
21487;DHT22;10905;50.822;4.336;2023-05-10T09:30:02;14.50;99.90
21487;DHT22;10905;50.822;4.336;2023-05-10T09:32:44;14.50;99.90
21487;DHT22;10905;50.822;4.336;2023-05-10T09:35:11;14.40;99.90
21487;DHT22;10905;50.822;4.336;2023-05-10T09:37:38;14.40;99.90
21487;DHT22;10905;50.822;4.336;2023-05-10T09:40:07;14.30;99.90
21487;DHT22;10905;50.822;4.336;2023-05-10T09:42:33;14.20;99.90
21487;DHT22;10905;50.822;4.336;2023-05-10T09:45:05;14.30;99.90
21487;DHT22;10905;50.822;4.336;2023-05-10T09:47:34;14.20;99.90
21487;DHT22;10905;50.822;4.336;2023-05-10T09:50:00;14.30;99.90
21487;DHT22;10905;50.822;4.336;2023-05-10T09:52:30;14.30;99.90
21487;DHT22;10905;50.822;4.336;2023-05-10T09:54:56;14.50;99.90
21487;DHT22;10905;50.822;4.336;2023-05-10T09:57:22;14.50;99.90
21487;DHT22;10905;50.822;4.336;2023-05-10T09:59:48;14.50;99.90
21487;DHT22;10905;50.822;4.336;2023-05-10T10:02:15;14.50;99.90
21487;DHT22;10905;50.822;4.336;2023-05-10T10:04:40;14.50;99.90
21487;DHT22;10905;50.822;4.336;2023-05-10T10:07:06;14.40;99.90
21487;DHT22;10905;50.822;4.336;2023-05-10T10:09:33;14.50;99.90
21487;DHT22;10905;50.822;4.336;2023-05-10T10:11:59;14.50;99.90
21487;DHT22;10905;50.822;4.336;2023-05-10T10:14:25;14.50;99.90
21487;DHT22;10905;50.822;4.336;2023-05-10T10:16:50;14.40;99.90
21487;DHT22;10905;50.822;4.336;2023-05-10T10:19:17;14.50;99.90
21487;DHT22;10905;50.822;4.336;2023-05-10T10:21:43;14.60;99.90
21487;DHT22;10905;50.822;4.336;2023-05-10T10:24:08;14.70;99.90
21487;DHT22;10905;50.822;4.336;2023-05-10T10:26:34;14.80;99.90
21487;DHT22;10905;50.822;4.336;2023-05-10T10:34:03;14.80;99.90
21487;DHT22;10905;50.822;4.336;2023-05-10T10:36:30;14.80;99.90
21487;DHT22;10905;50.822;4.336;2023-05-10T10:38:59;14.80;99.90
21487;DHT22;10905;50.822;4.336;2023-05-10T10:41:32;14.80;99.90
21487;DHT22;10905;50.822;4.336;2023-05-10T10:49:28;15.20;99.90
21487;DHT22;10905;50.822;4.336;2023-05-10T10:54:41;15.40;99.90
21487;DHT22;10905;50.822;4.336;2023-05-10T10:57:13;15.40;99.90
21487;DHT22;10905;50.822;4.336;2023-05-10T10:59:42;15.50;99.90
21487;DHT22;10905;50.822;4.336;2023-05-10T11:08:06;15.80;99.90
21487;DHT22;10905;50.822;4.336;2023-05-10T11:10:31;15.90;99.90
21487;DHT22;10905;50.822;4.336;2023-05-10T11:13:04;15.80;99.90
21487;DHT22;10905;50.822;4.336;2023-05-10T11:15:37;15.90;99.90
21487;DHT22;10905;50.822;4.336;2023-05-10T11:18:16;15.90;99.90
21487;DHT22;10905;50.822;4.336;2023-05-10T11:20:42;15.90;99.90
21487;DHT22;10905;50.822;4.336;2023-05-10T11:23:11;16.00;99.90
21487;DHT22;10905;50.822;4.336;2023-05-10T11:25:44;16.00;99.90
21487;DHT22;10905;50.822;4.336;2023-05-10T11:28:13;16.10;99.90
21487;DHT22;10905;50.822;4.336;2023-05-10T11:30:39;16.20;99.90
21487;DHT22;10905;50.822;4.336;2023-05-10T11:33:05;16.50;99.90
21487;DHT22;10905;50.822;4.336;2023-05-10T11:35:31;16.50;99.90
21487;DHT22;10905;50.822;4.336;2023-05-10T11:38:01;16.60;99.90
21487;DHT22;10905;50.822;4.336;2023-05-10T11:40:27;16.70;99.90
21487;DHT22;10905;50.822;4.336;2023-05-10T11:42:55;16.80;99.90
21487;DHT22;10905;50.822;4.336;2023-05-10T11:45:23;16.80;99.90
21487;DHT22;10905;50.822;4.336;2023-05-10T11:47:48;16.90;99.90
21487;DHT22;10905;50.822;4.336;2023-05-10T11:50:14;17.10;99.90
21487;DHT22;10905;50.822;4.336;2023-05-10T11:52:39;17.20;99.90
21487;DHT22;10905;50.822;4.336;2023-05-10T11:55:05;16.90;99.90
21487;DHT22;10905;50.822;4.336;2023-05-10T11:57:31;16.90;99.90
21487;DHT22;10905;50.822;4.336;2023-05-10T11:59:56;17.00;99.90
21487;DHT22;10905;50.822;4.336;2023-05-10T12:02:22;17.10;99.90
21487;DHT22;10905;50.822;4.336;2023-05-10T12:04:48;17.40;99.90
21487;DHT22;10905;50.822;4.336;2023-05-10T12:07:14;17.70;99.90
21487;DHT22;10905;50.822;4.336;2023-05-10T12:09:43;17.70;99.90
21487;DHT22;10905;50.822;4.336;2023-05-10T12:12:08;17.70;99.90
21487;DHT22;10905;50.822;4.336;2023-05-10T12:14:36;17.80;99.90
21487;DHT22;10905;50.822;4.336;2023-05-10T12:17:02;17.80;99.90
21487;DHT22;10905;50.822;4.336;2023-05-10T12:19:27;17.80;99.90
21487;DHT22;10905;50.822;4.336;2023-05-10T12:21:53;17.90;99.90
21487;DHT22;10905;50.822;4.336;2023-05-10T12:24:19;17.80;99.90
21487;DHT22;10905;50.822;4.336;2023-05-10T12:26:46;17.70;99.90
21487;DHT22;10905;50.822;4.336;2023-05-10T12:29:19;17.80;99.90
21487;DHT22;10905;50.822;4.336;2023-05-10T12:31:49;17.70;99.90
21487;DHT22;10905;50.822;4.336;2023-05-10T12:34:31;17.70;99.90
21487;DHT22;10905;50.822;4.336;2023-05-10T12:36:57;17.70;99.90
21487;DHT22;10905;50.822;4.336;2023-05-10T12:39:23;17.90;99.90
21487;DHT22;10905;50.822;4.336;2023-05-10T12:41:48;18.00;99.90
21487;DHT22;10905;50.822;4.336;2023-05-10T12:44:14;18.10;99.90
21487;DHT22;10905;50.822;4.336;2023-05-10T12:46:39;18.10;99.90
21487;DHT22;10905;50.822;4.336;2023-05-10T12:49:05;18.20;99.90
21487;DHT22;10905;50.822;4.336;2023-05-10T12:51:31;18.40;99.90
21487;DHT22;10905;50.822;4.336;2023-05-10T12:53:56;18.30;99.90
21487;DHT22;10905;50.822;4.336;2023-05-10T12:56:22;18.50;99.90
21487;DHT22;10905;50.822;4.336;2023-05-10T12:58:47;18.40;99.90
21487;DHT22;10905;50.822;4.336;2023-05-10T13:01:13;18.70;99.90
21487;DHT22;10905;50.822;4.336;2023-05-10T13:03:39;18.90;99.90
21487;DHT22;10905;50.822;4.336;2023-05-10T13:06:04;19.20;99.90
21487;DHT22;10905;50.822;4.336;2023-05-10T13:08:31;19.20;99.90
21487;DHT22;10905;50.822;4.336;2023-05-10T13:11:01;19.30;99.90
21487;DHT22;10905;50.822;4.336;2023-05-10T13:13:27;19.40;99.90
21487;DHT22;10905;50.822;4.336;2023-05-10T13:15:53;19.60;99.90
21487;DHT22;10905;50.822;4.336;2023-05-10T13:18:19;19.70;99.90
21487;DHT22;10905;50.822;4.336;2023-05-10T13:20:44;19.70;99.90
21487;DHT22;10905;50.822;4.336;2023-05-10T13:23:10;19.80;99.90
21487;DHT22;10905;50.822;4.336;2023-05-10T13:25:35;19.70;99.90
21487;DHT22;10905;50.822;4.336;2023-05-10T13:28:01;19.50;99.90
21487;DHT22;10905;50.822;4.336;2023-05-10T13:30:27;19.70;99.90
21487;DHT22;10905;50.822;4.336;2023-05-10T13:32:54;19.60;99.90
21487;DHT22;10905;50.822;4.336;2023-05-10T13:35:19;19.70;99.90
21487;DHT22;10905;50.822;4.336;2023-05-10T13:37:45;19.80;99.90
21487;DHT22;10905;50.822;4.336;2023-05-10T13:40:10;19.90;99.90
21487;DHT22;10905;50.822;4.336;2023-05-10T13:42:36;20.00;99.90
21487;DHT22;10905;50.822;4.336;2023-05-10T13:45:02;20.10;99.90
21487;DHT22;10905;50.822;4.336;2023-05-10T13:47:28;20.20;99.90
21487;DHT22;10905;50.822;4.336;2023-05-10T13:49:53;20.30;99.90
21487;DHT22;10905;50.822;4.336;2023-05-10T13:52:19;20.40;99.90
21487;DHT22;10905;50.822;4.336;2023-05-10T13:54:44;20.30;99.90
21487;DHT22;10905;50.822;4.336;2023-05-10T13:57:11;20.10;99.90
21487;DHT22;10905;50.822;4.336;2023-05-10T13:59:39;20.00;99.90
21487;DHT22;10905;50.822;4.336;2023-05-10T14:02:04;19.80;99.90
21487;DHT22;10905;50.822;4.336;2023-05-10T14:04:30;19.60;99.90
21487;DHT22;10905;50.822;4.336;2023-05-10T14:06:55;19.40;99.90
21487;DHT22;10905;50.822;4.336;2023-05-10T14:09:21;19.20;99.90
21487;DHT22;10905;50.822;4.336;2023-05-10T14:11:46;19.20;99.90
21487;DHT22;10905;50.822;4.336;2023-05-10T14:14:12;19.00;99.90
21487;DHT22;10905;50.822;4.336;2023-05-10T14:16:41;19.00;99.90
21487;DHT22;10905;50.822;4.336;2023-05-10T14:19:06;19.10;99.90
21487;DHT22;10905;50.822;4.336;2023-05-10T14:21:32;19.30;99.90
21487;DHT22;10905;50.822;4.336;2023-05-10T14:23:58;19.40;99.90
21487;DHT22;10905;50.822;4.336;2023-05-10T14:26:23;19.40;99.90
21487;DHT22;10905;50.822;4.336;2023-05-10T14:28:49;19.50;99.90
21487;DHT22;10905;50.822;4.336;2023-05-10T14:31:14;19.70;99.90
21487;DHT22;10905;50.822;4.336;2023-05-10T14:33:42;19.80;99.90
21487;DHT22;10905;50.822;4.336;2023-05-10T14:36:08;19.80;99.90
21487;DHT22;10905;50.822;4.336;2023-05-10T14:38:33;19.70;99.90
21487;DHT22;10905;50.822;4.336;2023-05-10T14:40:59;19.50;99.90
21487;DHT22;10905;50.822;4.336;2023-05-10T14:43:25;19.30;99.90
21487;DHT22;10905;50.822;4.336;2023-05-10T14:45:50;19.20;99.90
21487;DHT22;10905;50.822;4.336;2023-05-10T14:48:16;19.10;99.90
21487;DHT22;10905;50.822;4.336;2023-05-10T14:50:43;19.10;99.90
21487;DHT22;10905;50.822;4.336;2023-05-10T14:53:08;19.00;99.90
21487;DHT22;10905;50.822;4.336;2023-05-10T14:55:34;18.90;99.90
21487;DHT22;10905;50.822;4.336;2023-05-10T14:58:01;18.60;99.90
21487;DHT22;10905;50.822;4.336;2023-05-10T15:00:27;18.40;99.90
21487;DHT22;10905;50.822;4.336;2023-05-10T15:02:52;18.10;99.90
21487;DHT22;10905;50.822;4.336;2023-05-10T15:05:18;17.70;99.90
21487;DHT22;10905;50.822;4.336;2023-05-10T15:07:43;17.50;99.90
21487;DHT22;10905;50.822;4.336;2023-05-10T15:10:09;17.20;99.90
21487;DHT22;10905;50.822;4.336;2023-05-10T15:12:35;17.00;99.90
21487;DHT22;10905;50.822;4.336;2023-05-10T15:15:01;16.80;99.90
21487;DHT22;10905;50.822;4.336;2023-05-10T15:17:26;16.70;99.90
21487;DHT22;10905;50.822;4.336;2023-05-10T15:19:52;16.70;99.90
21487;DHT22;10905;50.822;4.336;2023-05-10T15:22:17;16.60;99.90
21487;DHT22;10905;50.822;4.336;2023-05-10T15:24:43;16.50;99.90
21487;DHT22;10905;50.822;4.336;2023-05-10T15:27:08;16.60;99.90
21487;DHT22;10905;50.822;4.336;2023-05-10T15:29:34;16.60;99.90
21487;DHT22;10905;50.822;4.336;2023-05-10T15:32:01;16.60;99.90
21487;DHT22;10905;50.822;4.336;2023-05-10T15:34:27;16.50;99.90
21487;DHT22;10905;50.822;4.336;2023-05-10T15:36:53;16.60;99.90
21487;DHT22;10905;50.822;4.336;2023-05-10T15:39:18;16.60;99.90
21487;DHT22;10905;50.822;4.336;2023-05-10T15:41:44;16.80;99.90
21487;DHT22;10905;50.822;4.336;2023-05-10T15:44:10;16.90;99.90
21487;DHT22;10905;50.822;4.336;2023-05-10T15:46:36;17.00;99.90
21487;DHT22;10905;50.822;4.336;2023-05-10T15:49:03;17.00;99.90
21487;DHT22;10905;50.822;4.336;2023-05-10T15:51:28;17.10;99.90
21487;DHT22;10905;50.822;4.336;2023-05-10T15:53:54;17.30;99.90
21487;DHT22;10905;50.822;4.336;2023-05-10T15:56:20;17.30;99.90
21487;DHT22;10905;50.822;4.336;2023-05-10T15:58:45;17.50;99.90
21487;DHT22;10905;50.822;4.336;2023-05-10T16:01:11;17.60;99.90
21487;DHT22;10905;50.822;4.336;2023-05-10T16:03:36;17.60;99.90
21487;DHT22;10905;50.822;4.336;2023-05-10T16:06:02;17.70;99.90
21487;DHT22;10905;50.822;4.336;2023-05-10T16:08:28;17.90;99.90